createdAt,value
2023-01-01T00:00:46.161Z,96319.50
2023-01-01T00:03:13.906Z,96296.53
2023-01-01T00:05:43.236Z,96326.06
2023-01-01T00:08:10.912Z,96235.34
2023-01-01T00:10:38.807Z,96350.31
2023-01-01T00:13:06.409Z,96347.97
2023-01-01T00:15:34.314Z,96342.97
2023-01-01T00:18:02.109Z,96328.97
2023-01-01T00:20:34.926Z,96342.16
2023-01-01T00:23:04.413Z,96348.47
2023-01-01T00:25:32.648Z,96268.84
2023-01-01T00:28:00.468Z,96362.44
2023-01-01T00:30:28.270Z,96339.78
2023-01-01T00:32:56.463Z,96350.88
2023-01-01T00:35:25.292Z,96357.69
2023-01-01T00:37:53.923Z,96353.50
2023-01-01T00:40:23.076Z,96302.91
2023-01-01T00:42:51.036Z,96355.06
2023-01-01T00:45:21.823Z,96341.66
2023-01-01T00:47:50.886Z,96340.31
2023-01-01T00:50:18.835Z,96335.59
2023-01-01T00:52:46.924Z,96353.00
2023-01-01T00:55:14.712Z,96227.34
2023-01-01T00:57:43.712Z,96310.28
2023-01-01T01:00:13.024Z,96371.44
2023-01-01T01:02:41.113Z,96369.34
2023-01-01T01:05:10.003Z,96255.75
2023-01-01T01:07:38.610Z,96359.06
2023-01-01T01:10:07.641Z,96325.31
2023-01-01T01:12:35.861Z,96342.19
2023-01-01T01:15:06.603Z,96371.19
2023-01-01T01:17:34.341Z,96374.88
2023-01-01T01:20:02.159Z,96378.81
2023-01-01T01:22:29.984Z,96335.31
2023-01-01T01:24:58.073Z,96374.09
2023-01-01T01:27:25.850Z,96389.38
2023-01-01T01:29:53.536Z,96385.69
2023-01-01T01:32:22.601Z,96375.66
2023-01-01T01:34:50.672Z,96367.72
2023-01-01T01:37:18.408Z,96384.03
2023-01-01T01:39:51.690Z,96383.50
2023-01-01T01:42:23.067Z,96395.63
2023-01-01T01:44:57.684Z,96352.16
2023-01-01T01:47:32.138Z,96385.31
2023-01-01T01:50:04.849Z,96386.66
2023-01-01T01:52:35.796Z,96282.09
2023-01-01T01:55:06.265Z,96297.91
2023-01-01T01:57:34.847Z,96286.56
2023-01-01T02:00:10.620Z,96315.56
2023-01-01T02:02:49.263Z,96325.28
2023-01-01T02:05:18.499Z,96318.44
2023-01-01T02:07:46.642Z,96311.31
2023-01-01T02:10:14.751Z,96376.63
2023-01-01T02:12:42.473Z,96378.69
2023-01-01T02:15:10.924Z,96375.00
2023-01-01T02:17:47.264Z,96374.41
2023-01-01T02:20:26.930Z,96303.19
2023-01-01T02:23:16.729Z,96383.91
2023-01-01T02:26:02.171Z,96361.13
2023-01-01T02:28:55.116Z,96380.38
2023-01-01T02:31:27.585Z,96372.16
2023-01-01T02:34:00.300Z,96375.84
2023-01-01T02:36:32.449Z,96320.53
2023-01-01T02:39:03.008Z,96370.34
2023-01-01T02:41:35.207Z,96344.22
2023-01-01T02:46:33.404Z,96338.88
2023-01-01T02:49:07.905Z,96370.22
2023-01-01T02:51:51.651Z,96359.97
2023-01-01T02:54:30.106Z,96370.44
2023-01-01T02:57:07.016Z,96255.44
2023-01-01T03:00:07.950Z,96364.94
2023-01-01T03:02:48.693Z,96368.38
2023-01-01T03:05:25.665Z,96373.97
2023-01-01T03:08:05.468Z,96366.91
2023-01-01T03:10:42.188Z,96376.41
2023-01-01T03:13:16.819Z,96379.81
2023-01-01T03:15:57.741Z,96380.91
2023-01-01T03:18:29.198Z,96287.06
2023-01-01T03:20:59.912Z,96384.44
2023-01-01T03:23:32.577Z,96381.47
2023-01-01T03:26:06.992Z,96348.56
2023-01-01T03:28:37.691Z,96380.69
2023-01-01T03:31:07.713Z,96283.53
2023-01-01T03:33:40.041Z,96350.44
2023-01-01T03:36:11.446Z,96395.06
2023-01-01T03:38:45.061Z,96391.59
2023-01-01T03:41:16.760Z,96406.22
2023-01-01T03:43:50.759Z,96353.13
2023-01-01T03:46:25.088Z,96395.34
2023-01-01T03:49:03.805Z,96408.72
2023-01-01T03:51:55.520Z,96407.69
2023-01-01T03:54:34.148Z,96406.50
2023-01-01T03:57:10.133Z,96417.66
2023-01-01T03:59:44.907Z,96411.22
2023-01-01T04:02:20.042Z,96381.75
2023-01-01T04:04:48.391Z,96375.00
2023-01-01T04:07:16.346Z,96412.31
2023-01-01T04:09:49.959Z,96407.78
2023-01-01T04:12:19.369Z,96336.53
2023-01-01T04:14:47.066Z,96310.50
2023-01-01T04:17:16.063Z,96390.63
2023-01-01T04:19:43.730Z,96288.09
2023-01-01T04:22:11.515Z,96293.84
2023-01-01T04:24:39.302Z,96395.44
2023-01-01T04:27:07.065Z,96398.59
2023-01-01T04:29:35.753Z,96391.75
2023-01-01T04:32:04.152Z,96378.63
2023-01-01T04:34:33.118Z,96416.81
2023-01-01T04:37:00.777Z,96408.69
2023-01-01T04:39:28.405Z,96361.22
2023-01-01T04:41:55.983Z,96350.94
2023-01-01T04:44:23.603Z,96369.44
2023-01-01T04:46:56.842Z,96346.00
2023-01-01T04:49:27.612Z,96417.16
2023-01-01T04:51:57.254Z,96417.69
2023-01-01T04:54:24.887Z,96410.78
2023-01-01T04:56:52.556Z,96331.66
2023-01-01T04:59:20.194Z,96418.78
2023-01-01T05:01:48.082Z,96415.38
2023-01-01T05:04:17.218Z,96416.66
2023-01-01T05:06:45.304Z,96444.59
2023-01-01T05:09:14.621Z,96434.81
2023-01-01T05:11:42.371Z,96332.00
2023-01-01T05:14:10.101Z,96416.13
2023-01-01T05:16:39.475Z,96404.56
2023-01-01T05:19:08.060Z,96369.50
2023-01-01T05:21:37.358Z,96371.31
2023-01-01T05:24:07.607Z,96432.22
2023-01-01T05:26:38.440Z,96425.38
2023-01-01T05:29:13.486Z,96431.44
2023-01-01T05:31:43.576Z,96427.97
2023-01-01T05:34:11.349Z,96423.00
2023-01-01T05:36:39.468Z,96430.69
2023-01-01T05:39:07.921Z,96403.47
2023-01-01T05:41:37.180Z,96416.09
2023-01-01T05:44:06.197Z,96426.88
2023-01-01T05:46:34.259Z,96415.81
2023-01-01T05:49:02.189Z,96431.38
2023-01-01T05:54:00.224Z,96333.75
2023-01-01T05:56:28.297Z,96455.94
2023-01-01T05:58:57.776Z,96459.63
2023-01-01T06:01:29.443Z,96463.00
2023-01-01T06:03:59.077Z,96469.28
2023-01-01T06:06:28.636Z,96462.50
2023-01-01T06:08:58.643Z,96453.25
2023-01-01T06:11:26.667Z,96468.00
2023-01-01T06:13:55.425Z,96461.44
2023-01-01T06:16:24.823Z,96469.91
2023-01-01T06:18:52.754Z,96463.31
2023-01-01T06:21:22.446Z,96456.69
2023-01-01T06:23:50.253Z,96466.75
2023-01-01T06:26:19.699Z,96379.66
2023-01-01T06:28:48.421Z,96473.31
2023-01-01T06:31:17.953Z,96477.28
2023-01-01T06:33:47.538Z,96468.38
2023-01-01T06:36:17.150Z,96464.91
2023-01-01T06:38:46.618Z,96487.56
2023-01-01T06:41:16.273Z,96467.31
2023-01-01T06:43:44.684Z,96393.97
2023-01-01T06:46:16.854Z,96483.63
2023-01-01T06:48:45.610Z,96490.50
2023-01-01T06:51:16.665Z,96493.38
2023-01-01T06:53:44.813Z,96502.28
2023-01-01T06:56:13.509Z,96506.44
2023-01-01T06:58:41.117Z,96470.69
2023-01-01T07:01:12.398Z,96507.09
2023-01-01T07:03:41.069Z,96511.13
2023-01-01T07:06:10.530Z,96521.19
2023-01-01T07:08:39.550Z,96519.44
2023-01-01T07:11:07.370Z,96531.47
2023-01-01T07:13:35.110Z,96524.63
2023-01-01T07:16:10.196Z,96511.38
2023-01-01T07:18:40.269Z,96450.38
2023-01-01T07:21:28.438Z,96531.78
2023-01-01T07:23:58.807Z,96544.56
2023-01-01T07:26:27.728Z,96475.09
2023-01-01T07:28:58.396Z,96416.88
2023-01-01T07:31:32.156Z,96530.09
2023-01-01T07:33:59.847Z,96508.44
2023-01-01T07:36:27.498Z,96494.91
2023-01-01T07:38:55.842Z,96461.16
2023-01-01T07:41:24.848Z,96523.28
2023-01-01T07:43:52.823Z,96540.75
2023-01-01T07:46:20.617Z,96448.81
2023-01-01T07:48:48.241Z,96538.03
2023-01-01T07:51:16.110Z,96449.84
2023-01-01T07:53:43.780Z,96513.50
2023-01-01T07:56:11.564Z,96548.69
2023-01-01T07:58:41.715Z,96566.13
2023-01-01T08:01:11.689Z,96572.00
2023-01-01T08:03:39.507Z,96571.84
2023-01-01T08:06:09.869Z,96552.38
2023-01-01T08:08:37.634Z,96568.28
2023-01-01T08:11:06.271Z,96546.69
2023-01-01T08:13:33.916Z,96557.41
2023-01-01T08:16:03.003Z,96552.44
2023-01-01T08:18:30.859Z,96562.84
2023-01-01T08:20:58.555Z,96534.88
2023-01-01T08:23:26.478Z,96556.03
2023-01-01T08:25:54.126Z,96502.50
2023-01-01T08:28:21.743Z,96475.84
2023-01-01T08:30:49.805Z,96551.28
2023-01-01T08:33:18.753Z,96549.72
2023-01-01T08:35:52.010Z,96568.44
2023-01-01T08:38:21.635Z,96562.13
2023-01-01T08:40:49.318Z,96584.28
2023-01-01T08:43:17.012Z,96582.41
2023-01-01T08:45:45.335Z,96588.75
2023-01-01T08:48:12.994Z,96596.16
2023-01-01T08:50:41.918Z,96591.13
2023-01-01T08:53:10.918Z,96585.84
2023-01-01T08:55:39.612Z,96587.44
2023-01-01T08:58:08.288Z,96588.50
2023-01-01T09:00:36.161Z,96590.88
2023-01-01T09:03:04.112Z,96590.88
2023-01-01T09:05:31.847Z,96594.56
2023-01-01T09:08:00.809Z,96597.47
2023-01-01T09:10:28.533Z,96579.28
2023-01-01T09:12:56.253Z,96609.34
2023-01-01T09:15:23.974Z,96570.53
2023-01-01T09:17:51.634Z,96561.28
2023-01-01T09:20:19.297Z,96577.66
2023-01-01T09:22:46.923Z,96577.16
2023-01-01T09:25:15.959Z,96600.09
2023-01-01T09:27:43.642Z,96611.44
2023-01-01T09:30:12.404Z,96619.13
2023-01-01T09:32:40.230Z,96613.03
2023-01-01T09:35:08.511Z,96606.13
2023-01-01T09:37:36.485Z,96618.84
2023-01-01T09:40:04.521Z,96614.59
2023-01-01T09:42:40.295Z,96613.56
2023-01-01T09:45:22.510Z,96585.06
2023-01-01T09:47:54.218Z,96614.63
2023-01-01T09:50:24.676Z,96612.53
2023-01-01T09:52:56.810Z,96603.56
2023-01-01T09:55:29.603Z,96599.84
2023-01-01T09:57:58.895Z,96608.25
2023-01-01T10:00:27.533Z,96587.66
2023-01-01T10:03:05.355Z,96585.47
2023-01-01T10:05:43.602Z,96583.81
2023-01-01T10:08:23.702Z,96561.41
2023-01-01T10:11:01.823Z,96579.69
2023-01-01T10:13:38.072Z,96576.19
2023-01-01T10:16:11.308Z,96581.88
2023-01-01T10:18:43.550Z,96553.28
2023-01-01T10:21:15.794Z,96538.19
2023-01-01T10:23:47.247Z,96544.50
2023-01-01T10:26:17.965Z,96585.53
2023-01-01T10:28:55.807Z,96580.63
2023-01-01T10:31:31.467Z,96569.13
2023-01-01T10:33:59.384Z,96530.69
2023-01-01T10:36:27.915Z,96549.88
2023-01-01T10:38:55.573Z,96536.69
2023-01-01T10:41:23.311Z,96540.53
2023-01-01T10:43:55.145Z,96440.66
2023-01-01T10:46:31.594Z,96542.41
2023-01-01T10:49:10.877Z,96557.59
2023-01-01T10:51:53.685Z,96565.94
2023-01-01T10:54:33.828Z,96529.00
2023-01-01T10:57:13.474Z,96559.19
2023-01-01T10:59:49.857Z,96389.25
2023-01-01T11:02:23.947Z,96553.13
2023-01-01T11:05:20.775Z,96551.28
2023-01-01T11:07:49.818Z,96538.78
2023-01-01T11:10:20.368Z,96515.78
2023-01-01T11:13:06.474Z,96470.41
2023-01-01T11:15:42.463Z,96455.06
2023-01-01T11:18:15.104Z,96491.53
2023-01-01T11:20:44.407Z,96519.50
2023-01-01T11:23:21.796Z,96499.56
2023-01-01T11:26:00.968Z,96527.00
2023-01-01T11:28:31.854Z,96380.69
2023-01-01T11:31:16.781Z,96506.78
2023-01-01T11:33:47.512Z,96514.06
2023-01-01T11:36:22.413Z,96492.75
2023-01-01T11:38:52.681Z,96409.47
2023-01-01T11:41:20.430Z,96502.31
2023-01-01T11:43:50.022Z,96383.94
2023-01-01T11:46:24.675Z,96389.56
2023-01-01T11:48:55.230Z,96395.84
2023-01-01T11:51:32.009Z,96486.72
2023-01-01T11:54:11.952Z,96497.13
2023-01-01T11:56:40.713Z,96436.50
2023-01-01T11:59:16.720Z,96478.06
2023-01-01T12:01:48.712Z,96460.81
2023-01-01T12:04:22.721Z,96405.00
2023-01-01T12:06:55.684Z,96474.72
2023-01-01T12:09:29.507Z,96477.28
2023-01-01T12:12:05.099Z,96385.69
2023-01-01T12:14:41.324Z,96469.31
2023-01-01T12:17:17.896Z,96471.31
2023-01-01T12:19:57.424Z,96480.22
2023-01-01T12:22:26.947Z,96487.81
2023-01-01T12:24:57.876Z,96450.63
2023-01-01T12:27:38.217Z,96430.31
2023-01-01T12:30:21.564Z,96452.78
2023-01-01T12:33:09.376Z,96449.56
2023-01-01T12:35:50.811Z,96472.78
2023-01-01T12:38:33.355Z,96464.91
2023-01-01T12:41:07.809Z,96400.88
2023-01-01T12:43:44.272Z,96393.72
2023-01-01T12:46:42.756Z,96457.91
2023-01-01T12:49:36.698Z,96459.41
2023-01-01T12:52:25.673Z,96392.00
2023-01-01T12:55:26.319Z,96458.91
2023-01-01T12:58:02.284Z,96339.59
2023-01-01T13:00:31.486Z,96412.19
2023-01-01T13:03:07.795Z,96455.16
2023-01-01T13:05:41.281Z,96399.88
2023-01-01T13:08:09.081Z,96413.56
2023-01-01T13:10:43.206Z,96431.56
2023-01-01T13:13:16.385Z,96444.84
2023-01-01T13:15:50.254Z,96395.19
2023-01-01T13:18:30.583Z,96441.31
2023-01-01T13:21:03.206Z,96422.94
2023-01-01T13:23:52.732Z,96469.09
2023-01-01T13:26:42.034Z,96431.31
2023-01-01T13:29:33.323Z,96462.88
2023-01-01T13:32:07.753Z,96391.53
2023-01-01T13:34:38.844Z,96399.22
2023-01-01T13:37:45.068Z,96458.66
2023-01-01T13:40:34.112Z,96459.34
2023-01-01T13:43:20.070Z,96401.63
2023-01-01T13:49:19.944Z,96474.28
2023-01-01T13:52:05.806Z,96465.72
2023-01-01T13:55:03.714Z,96467.03
2023-01-01T13:57:49.531Z,96461.88
2023-01-01T14:00:23.280Z,96464.41
2023-01-01T14:02:58.853Z,96449.63
2023-01-01T14:05:32.502Z,96398.72
2023-01-01T14:08:00.566Z,96358.34
2023-01-01T14:10:32.261Z,96440.16
2023-01-01T14:13:16.352Z,96446.44
2023-01-01T14:15:53.660Z,96332.81
2023-01-01T14:18:25.153Z,96455.81
2023-01-01T14:20:54.903Z,96447.09
2023-01-01T14:23:31.739Z,96459.22
2023-01-01T14:26:03.488Z,96397.63
2023-01-01T14:28:33.004Z,96420.69
2023-01-01T14:31:10.629Z,96456.97
2023-01-01T14:33:39.434Z,96438.13
2023-01-01T14:36:16.744Z,96458.06
2023-01-01T14:38:46.403Z,96423.34
2023-01-01T14:41:19.232Z,96427.81
2023-01-01T14:43:49.023Z,96354.31
2023-01-01T14:46:20.205Z,96453.81
2023-01-01T14:48:51.555Z,96432.09
2023-01-01T14:51:22.185Z,96391.91
2023-01-01T14:53:56.868Z,96425.13
2023-01-01T14:56:29.140Z,96450.38
2023-01-01T14:59:06.197Z,96434.19
2023-01-01T15:01:34.064Z,96478.78
2023-01-01T15:04:05.780Z,96464.44
2023-01-01T15:06:33.893Z,96407.53
2023-01-01T15:09:01.694Z,96357.53
2023-01-01T15:11:30.861Z,96475.47
2023-01-01T15:14:01.350Z,96464.59
2023-01-01T15:16:36.325Z,96338.28
2023-01-01T15:19:18.222Z,96373.88
2023-01-01T15:21:46.924Z,96467.13
2023-01-01T15:24:17.152Z,96354.72
2023-01-01T15:26:51.466Z,96469.00
2023-01-01T15:29:27.057Z,96391.06
2023-01-01T15:31:57.263Z,96460.63
2023-01-01T15:34:27.731Z,96471.94
2023-01-01T15:36:57.539Z,96479.69
2023-01-01T15:39:26.843Z,96458.69
2023-01-01T15:41:56.104Z,96445.84
2023-01-01T15:44:29.789Z,96470.84
2023-01-01T15:47:06.638Z,96474.31
2023-01-01T15:49:34.578Z,96477.72
2023-01-01T15:52:05.214Z,96477.47
2023-01-01T15:54:39.810Z,96286.03
2023-01-01T15:57:18.577Z,96431.97
2023-01-01T15:59:47.705Z,96487.06
2023-01-01T16:02:21.192Z,96462.28
2023-01-01T16:04:51.082Z,96361.41
2023-01-01T16:07:23.185Z,96376.97
2023-01-01T16:09:57.379Z,96478.97
2023-01-01T16:12:26.682Z,96445.22
2023-01-01T16:14:54.401Z,96334.78
2023-01-01T16:17:22.433Z,96456.84
2023-01-01T16:19:54.918Z,96470.56
2023-01-01T16:22:22.660Z,96352.97
2023-01-01T16:24:50.340Z,96474.28
2023-01-01T16:27:18.219Z,96381.47
2023-01-01T16:29:54.336Z,96479.25
2023-01-01T16:32:22.454Z,96437.09
2023-01-01T16:34:50.136Z,96405.16
2023-01-01T16:37:22.581Z,96454.47
2023-01-01T16:39:50.600Z,96466.88
2023-01-01T16:42:18.640Z,96444.75
2023-01-01T16:44:47.662Z,96442.63
2023-01-01T16:47:15.368Z,96379.31
2023-01-01T16:49:44.361Z,96431.28
2023-01-01T16:52:12.111Z,96398.56
2023-01-01T16:54:40.227Z,96429.44
2023-01-01T16:57:07.969Z,96342.44
2023-01-01T16:59:35.725Z,96340.88
2023-01-01T17:02:04.870Z,96394.63
2023-01-01T17:04:32.640Z,96444.16
2023-01-01T17:07:00.271Z,96428.63
2023-01-01T17:09:28.914Z,96452.84
2023-01-01T17:11:56.600Z,96451.03
2023-01-01T17:14:24.455Z,96395.91
2023-01-01T17:16:55.366Z,96414.34
2023-01-01T17:19:24.449Z,96448.75
2023-01-01T17:21:52.178Z,96455.59
2023-01-01T17:24:21.472Z,96453.19
2023-01-01T17:26:52.649Z,96440.75
2023-01-01T17:29:20.585Z,96394.38
2023-01-01T17:31:48.260Z,96371.72
2023-01-01T17:34:15.944Z,96368.03
2023-01-01T17:36:45.880Z,96414.31
2023-01-01T17:39:15.102Z,96445.13
2023-01-01T17:41:43.977Z,96437.50
2023-01-01T17:44:12.140Z,96440.41
2023-01-01T17:46:40.204Z,96441.94
2023-01-01T17:49:09.095Z,96392.50
2023-01-01T17:51:36.885Z,96416.97
2023-01-01T17:54:10.185Z,96434.50
2023-01-01T17:56:37.845Z,96438.78
2023-01-01T17:59:05.577Z,96432.00
2023-01-01T18:01:35.316Z,96358.03
2023-01-01T18:04:05.149Z,96436.34
2023-01-01T18:06:40.279Z,96433.75
2023-01-01T18:09:13.017Z,96424.34
2023-01-01T18:11:41.676Z,96406.91
2023-01-01T18:14:09.824Z,96367.94
2023-01-01T18:16:39.221Z,96407.72
2023-01-01T18:19:07.527Z,96392.44
2023-01-01T18:21:35.654Z,96366.91
2023-01-01T18:24:03.688Z,96416.88
2023-01-01T18:26:32.781Z,96311.75
2023-01-01T18:29:02.265Z,96343.88
2023-01-01T18:31:32.118Z,96410.00
2023-01-01T18:34:01.477Z,96411.81
2023-01-01T18:36:31.244Z,96414.19
2023-01-01T18:39:01.373Z,96426.06
2023-01-01T18:42:02.214Z,96421.25
2023-01-01T18:44:31.711Z,96315.50
2023-01-01T18:47:03.167Z,96413.66
2023-01-01T18:49:31.283Z,96428.97
2023-01-01T18:52:13.594Z,96381.59
2023-01-01T18:54:41.754Z,96341.09
2023-01-01T18:57:23.655Z,96379.03
2023-01-01T18:59:56.800Z,96321.19
2023-01-01T19:02:30.389Z,96406.69
2023-01-01T19:05:17.461Z,96377.50
2023-01-01T19:07:46.436Z,96416.41
2023-01-01T19:10:14.771Z,96379.53
2023-01-01T19:12:44.550Z,96310.56
2023-01-01T19:15:18.108Z,96403.00
2023-01-01T19:17:45.869Z,96346.38
2023-01-01T19:20:19.362Z,96353.44
2023-01-01T19:22:47.763Z,96287.97
2023-01-01T19:25:38.191Z,96394.25
2023-01-01T19:28:29.530Z,96392.94
2023-01-01T19:30:57.201Z,96392.63
2023-01-01T19:33:24.923Z,96389.38
2023-01-01T19:35:53.197Z,96355.25
2023-01-01T19:38:21.379Z,96369.47
2023-01-01T19:40:49.050Z,96389.50
2023-01-01T19:43:18.094Z,96404.59
2023-01-01T19:45:45.782Z,96274.00
2023-01-01T19:48:13.533Z,96365.38
2023-01-01T19:50:41.216Z,96319.94
2023-01-01T19:53:08.962Z,96366.78
2023-01-01T19:55:37.449Z,96335.56
2023-01-01T19:58:05.088Z,96351.09
2023-01-01T20:00:34.179Z,96350.31
2023-01-01T20:03:34.295Z,96346.41
2023-01-01T20:05:49.597Z,96318.56
2023-01-01T20:08:17.288Z,96362.03
2023-01-01T20:10:44.942Z,96293.34
2023-01-01T20:13:12.588Z,96356.53
2023-01-01T20:15:46.544Z,96355.50
2023-01-01T20:18:14.700Z,96332.91
2023-01-01T20:21:03.112Z,96357.66
2023-01-01T20:23:30.943Z,96359.50
2023-01-01T20:25:58.633Z,96330.78
2023-01-01T20:28:43.587Z,96329.53
2023-01-01T20:31:12.696Z,96344.78
2023-01-01T20:33:40.464Z,96308.19
2023-01-01T20:36:25.890Z,96316.06
2023-01-01T20:38:53.542Z,96334.00
2023-01-01T20:41:25.188Z,96238.66
2023-01-01T20:43:54.954Z,96285.00
2023-01-01T20:46:29.827Z,96304.22
2023-01-01T20:48:57.791Z,96322.13
2023-01-01T20:51:25.788Z,96254.38
2023-01-01T20:53:53.492Z,96328.41
2023-01-01T20:56:21.208Z,96304.19
2023-01-01T20:58:54.513Z,96329.16
2023-01-01T21:01:25.845Z,96258.19
2023-01-01T21:03:55.367Z,96334.38
2023-01-01T21:06:24.665Z,96320.09
2023-01-01T21:08:52.953Z,96356.47
2023-01-01T21:11:20.679Z,96337.47
2023-01-01T21:13:48.870Z,96331.66
2023-01-01T21:16:26.125Z,96323.66
2023-01-01T21:18:56.895Z,96358.72
2023-01-01T21:21:26.503Z,96255.25
2023-01-01T21:24:03.441Z,96353.00
2023-01-01T21:26:35.909Z,96370.50
2023-01-01T21:29:08.921Z,96332.47
2023-01-01T21:31:39.370Z,96363.00
2023-01-01T21:34:21.486Z,96380.38
2023-01-01T21:36:49.182Z,96281.38
2023-01-01T21:39:17.771Z,96281.28
2023-01-01T21:41:45.502Z,96293.13
2023-01-01T21:44:16.471Z,96368.91
2023-01-01T21:46:54.293Z,96296.44
2023-01-01T21:49:34.574Z,96371.34
2023-01-01T21:52:03.806Z,96289.47
2023-01-01T21:54:34.011Z,96317.91
2023-01-01T21:57:03.257Z,96355.16
2023-01-01T21:59:40.744Z,96370.69
2023-01-01T22:02:33.218Z,96330.53
2023-01-01T22:05:18.573Z,96369.53
2023-01-01T22:08:02.856Z,96368.66
2023-01-01T22:10:36.918Z,96363.56
2023-01-01T22:13:15.633Z,96355.22
2023-01-01T22:15:43.676Z,96336.19
2023-01-01T22:18:22.916Z,96246.06
2023-01-01T22:20:52.632Z,96345.25
2023-01-01T22:23:31.985Z,96335.88
2023-01-01T22:25:59.721Z,96237.56
2023-01-01T22:28:34.245Z,96347.16
2023-01-01T22:31:03.096Z,96311.38
2023-01-01T22:33:37.168Z,96320.22
2023-01-01T22:36:14.082Z,96339.41
2023-01-01T22:38:42.066Z,96309.69
2023-01-01T22:41:10.592Z,96147.91
2023-01-01T22:43:42.497Z,96324.16
2023-01-01T22:46:17.652Z,96341.41
2023-01-01T22:48:45.451Z,96339.47
2023-01-01T22:51:19.702Z,96317.88
2023-01-01T22:53:49.799Z,96331.97
2023-01-01T22:56:17.507Z,96211.19
2023-01-01T22:58:45.318Z,96206.84
2023-01-01T23:01:13.074Z,96220.19
2023-01-01T23:03:40.819Z,96362.16
2023-01-01T23:06:08.783Z,96301.91
2023-01-01T23:08:37.936Z,96335.94
2023-01-01T23:11:05.637Z,96308.34
2023-01-01T23:13:50.860Z,96337.84
2023-01-01T23:16:18.547Z,96227.34
2023-01-01T23:18:46.235Z,96164.28
2023-01-01T23:21:22.838Z,96254.38
2023-01-01T23:24:26.507Z,96325.41
2023-01-01T23:26:54.866Z,96228.50
2023-01-01T23:29:24.125Z,96318.53
2023-01-01T23:31:52.278Z,96266.03
2023-01-01T23:34:20.226Z,96292.16
2023-01-01T23:36:48.337Z,96305.03
2023-01-01T23:39:16.023Z,96213.84
2023-01-01T23:41:45.234Z,96216.34
2023-01-01T23:44:12.920Z,96161.56
2023-01-01T23:46:40.998Z,96224.19
2023-01-01T23:49:09.542Z,96202.94
2023-01-01T23:51:39.740Z,96172.69
2023-01-01T23:54:07.935Z,96162.34
2023-01-01T23:56:35.725Z,96319.19
2023-01-01T23:59:04.845Z,96193.03
